createdAt,value
2022-10-14T00:01:15.769Z,21.80
2022-10-14T00:04:48.006Z,22.20
2022-10-14T00:08:14.642Z,21.80
2022-10-14T00:11:41.931Z,22.70
2022-10-14T00:15:11.060Z,23.50
2022-10-14T00:18:37.595Z,23.50
2022-10-14T00:22:04.510Z,22.70
2022-10-14T00:25:31.363Z,22.50
2022-10-14T00:28:59.747Z,21.80
2022-10-14T00:32:30.486Z,21.60
2022-10-14T00:35:59.567Z,21.50
2022-10-14T00:39:30.635Z,22.00
2022-10-14T00:42:57.621Z,21.80
2022-10-14T00:46:24.644Z,20.90
2022-10-14T00:49:55.421Z,21.40
2022-10-14T00:53:23.089Z,24.10
2022-10-14T00:56:51.777Z,23.50
2022-10-14T01:00:22.291Z,23.20
2022-10-14T01:03:49.882Z,25.00
2022-10-14T01:07:32.980Z,24.30
2022-10-14T01:11:08.960Z,24.40
2022-10-14T01:14:46.239Z,25.00
2022-10-14T01:18:28.659Z,24.20
2022-10-14T01:22:03.425Z,26.10
2022-10-14T01:25:35.199Z,25.00
2022-10-14T01:29:16.785Z,25.00
2022-10-14T01:32:52.028Z,25.50
2022-10-14T01:36:24.066Z,24.30
2022-10-14T01:39:55.919Z,23.80
2022-10-14T01:43:25.845Z,23.80
2022-10-14T01:46:56.490Z,24.70
2022-10-14T01:50:25.765Z,23.90
2022-10-14T01:53:59.297Z,24.70
2022-10-14T01:57:29.168Z,25.90
2022-10-14T02:00:57.582Z,24.90
2022-10-14T02:04:25.178Z,24.90
2022-10-14T02:07:58.941Z,26.40
2022-10-14T02:11:26.853Z,25.10
2022-10-14T02:15:02.403Z,25.10
2022-10-14T02:18:37.033Z,27.40
2022-10-14T02:22:10.342Z,26.10
2022-10-14T02:25:40.369Z,26.20
2022-10-14T02:29:08.682Z,28.70
2022-10-14T02:32:36.895Z,25.60
2022-10-14T02:36:06.886Z,25.40
2022-10-14T02:39:40.522Z,25.10
2022-10-14T02:43:10.452Z,27.30
2022-10-14T02:46:37.517Z,24.60
2022-10-14T02:50:04.461Z,24.60
2022-10-14T02:53:31.988Z,24.80
2022-10-14T02:56:58.419Z,25.10
2022-10-14T03:00:25.279Z,26.00
2022-10-14T03:03:53.906Z,26.40
2022-10-14T03:07:22.634Z,27.20
2022-10-14T03:10:51.054Z,26.50
2022-10-14T03:14:18.066Z,27.00
2022-10-14T03:17:45.717Z,28.90
2022-10-14T03:21:12.714Z,29.00
2022-10-14T03:24:40.967Z,27.60
2022-10-14T03:28:23.790Z,29.20
2022-10-14T03:32:12.555Z,28.70
2022-10-14T03:36:09.412Z,27.40
2022-10-14T03:39:42.952Z,26.20
2022-10-14T03:43:09.597Z,27.30
2022-10-14T03:46:43.513Z,26.70
2022-10-14T03:50:11.700Z,27.90
2022-10-14T03:53:48.151Z,28.30
2022-10-14T03:57:18.406Z,26.90
2022-10-14T04:00:49.952Z,25.50
2022-10-14T04:04:26.025Z,27.30
2022-10-14T04:07:52.863Z,27.80
2022-10-14T04:11:19.847Z,27.50
2022-10-14T04:14:48.091Z,29.30
2022-10-14T04:18:14.931Z,29.10
2022-10-14T04:21:42.225Z,29.20
2022-10-14T04:25:11.456Z,29.90
2022-10-14T04:28:39.061Z,30.50
2022-10-14T04:32:13.461Z,30.60
2022-10-14T04:35:42.847Z,31.20
2022-10-14T04:39:16.308Z,29.20
2022-10-14T04:42:43.602Z,29.60
2022-10-14T04:46:18.716Z,28.30
2022-10-14T04:49:45.686Z,28.90
2022-10-14T04:53:21.769Z,28.60
2022-10-14T04:56:59.263Z,28.40
2022-10-14T05:00:26.335Z,26.60
2022-10-14T05:04:01.500Z,26.80
2022-10-14T05:07:32.780Z,28.40
2022-10-14T05:11:08.643Z,27.70
2022-10-14T05:14:40.928Z,28.60
2022-10-14T05:18:15.919Z,30.20
2022-10-14T05:21:57.612Z,28.20
2022-10-14T05:25:31.326Z,30.10
2022-10-14T05:28:58.932Z,29.90
2022-10-14T05:32:25.943Z,29.50
2022-10-14T05:36:00.037Z,29.10
2022-10-14T05:39:29.577Z,30.20
2022-10-14T05:42:57.245Z,29.70
2022-10-14T05:46:24.106Z,28.40
2022-10-14T05:49:53.686Z,28.30
2022-10-14T05:53:20.736Z,28.80
2022-10-14T05:56:49.086Z,29.30
2022-10-14T06:00:24.671Z,30.60
2022-10-14T06:03:54.848Z,30.10
2022-10-14T06:07:21.377Z,28.90
2022-10-14T06:10:48.124Z,29.60
2022-10-14T06:14:15.727Z,30.10
2022-10-14T06:17:43.710Z,33.60
2022-10-14T06:21:12.167Z,33.60
2022-10-14T06:24:39.353Z,34.40
2022-10-14T06:28:10.251Z,34.70
2022-10-14T06:31:36.696Z,35.80
2022-10-14T06:35:03.803Z,36.20
2022-10-14T06:38:30.248Z,38.80
2022-10-14T06:41:56.928Z,40.00
2022-10-14T06:45:23.705Z,38.00
2022-10-14T06:48:51.182Z,37.10
2022-10-14T06:52:20.229Z,38.50
2022-10-14T06:55:48.366Z,40.60
2022-10-14T06:59:20.235Z,40.80
2022-10-14T07:02:49.912Z,38.30
2022-10-14T07:06:17.271Z,36.10
2022-10-14T07:09:43.703Z,38.30
2022-10-14T07:13:12.023Z,38.40
2022-10-14T07:16:38.760Z,39.80
2022-10-14T07:20:06.042Z,39.10
2022-10-14T07:23:32.770Z,41.90
2022-10-14T07:26:59.246Z,39.50
2022-10-14T07:30:26.202Z,39.10
2022-10-14T07:33:53.130Z,40.70
2022-10-14T07:37:20.561Z,39.30
2022-10-14T07:40:47.485Z,41.10
2022-10-14T07:44:17.033Z,40.30
2022-10-14T07:47:43.594Z,38.90
2022-10-14T07:51:10.626Z,41.40
2022-10-14T07:54:36.911Z,38.00
2022-10-14T07:58:03.542Z,38.30
2022-10-14T08:01:30.324Z,36.70
2022-10-14T08:05:18.875Z,46.70
2022-10-14T08:08:46.935Z,43.60
2022-10-14T08:12:14.519Z,39.80
2022-10-14T08:15:43.530Z,38.20
2022-10-14T08:19:15.131Z,39.70
2022-10-14T08:22:41.775Z,38.20
2022-10-14T08:26:21.625Z,38.00
2022-10-14T08:29:55.950Z,39.40
2022-10-14T08:33:24.565Z,39.00
2022-10-14T08:36:51.406Z,38.20
2022-10-14T08:40:19.654Z,40.00
2022-10-14T08:43:52.123Z,40.90
2022-10-14T08:47:23.133Z,38.60
2022-10-14T08:50:57.519Z,38.40
2022-10-14T08:54:32.093Z,37.00
2022-10-14T08:58:05.026Z,35.20
2022-10-14T09:01:36.250Z,36.60
2022-10-14T09:05:05.309Z,37.10
2022-10-14T09:08:40.069Z,36.60
2022-10-14T09:12:13.320Z,38.10
2022-10-14T09:15:43.202Z,39.30
2022-10-14T09:19:20.192Z,40.60
2022-10-14T09:26:30.247Z,39.70
2022-10-14T09:30:03.439Z,39.70
2022-10-14T09:36:59.661Z,38.00
2022-10-14T09:40:33.899Z,38.90
2022-10-14T09:47:51.223Z,35.00
2022-10-14T09:51:25.412Z,34.90
2022-10-14T09:58:27.579Z,34.90
2022-10-14T10:01:57.786Z,38.00
2022-10-14T10:05:29.808Z,36.70
2022-10-14T10:09:01.674Z,35.30
2022-10-14T10:12:41.864Z,37.20
2022-10-14T10:16:20.054Z,35.80
2022-10-14T10:19:48.354Z,34.40
2022-10-14T10:23:26.501Z,37.00
2022-10-14T10:26:53.286Z,35.60
2022-10-14T10:30:27.541Z,36.70
2022-10-14T10:34:02.027Z,36.40
2022-10-14T10:37:38.642Z,34.40
2022-10-14T10:41:27.440Z,32.90
2022-10-14T10:45:18.731Z,32.90
2022-10-14T10:54:38.237Z,29.40
2022-10-14T10:58:20.800Z,29.10
2022-10-14T11:02:04.438Z,30.20
2022-10-14T11:06:05.971Z,29.10
2022-10-14T11:10:52.852Z,29.60
2022-10-14T11:14:34.637Z,27.40
2022-10-14T11:18:05.462Z,29.00
2022-10-14T11:21:41.731Z,29.60
2022-10-14T11:25:22.999Z,27.70
2022-10-14T11:28:57.968Z,25.40
2022-10-14T11:32:32.124Z,24.30
2022-10-14T11:36:13.731Z,24.40
2022-10-14T11:39:50.117Z,23.50
2022-10-14T11:43:32.662Z,23.70
2022-10-14T11:47:04.758Z,22.70
2022-10-14T11:50:38.250Z,21.60
2022-10-14T11:54:11.807Z,21.40
2022-10-14T11:57:42.901Z,21.70
2022-10-14T12:01:20.569Z,20.10
2022-10-14T12:04:53.504Z,19.60
2022-10-14T12:08:28.475Z,19.10
2022-10-14T12:12:03.178Z,18.40
2022-10-14T12:19:02.369Z,20.40
2022-10-14T12:22:31.923Z,19.50
2022-10-14T12:26:08.296Z,18.10
2022-10-14T12:29:38.810Z,17.60
2022-10-14T12:33:08.228Z,15.40
2022-10-14T12:40:27.626Z,18.40
2022-10-14T12:44:04.815Z,16.30
2022-10-14T12:47:35.445Z,16.10
2022-10-14T12:51:22.363Z,19.50
2022-10-14T12:58:27.372Z,19.80
2022-10-14T13:02:02.223Z,18.70
2022-10-14T13:05:35.180Z,18.20
2022-10-14T13:12:47.605Z,21.60
2022-10-14T13:17:06.057Z,19.90
2022-10-14T13:20:54.061Z,18.80
2022-10-14T13:24:27.048Z,19.30
2022-10-14T13:31:32.227Z,19.30
2022-10-14T13:35:08.889Z,18.60
2022-10-14T13:38:36.619Z,17.60
2022-10-14T13:42:04.711Z,18.60
2022-10-14T13:45:41.144Z,18.00
2022-10-14T13:52:55.200Z,16.50
2022-10-14T13:56:26.764Z,17.10
2022-10-14T14:03:44.779Z,21.30
2022-10-14T14:07:47.695Z,20.90
2022-10-14T14:11:16.637Z,21.40
2022-10-14T14:14:47.264Z,20.20
2022-10-14T14:21:48.540Z,18.70
2022-10-14T14:25:33.422Z,17.30
2022-10-14T14:29:05.257Z,16.30
2022-10-14T14:32:34.562Z,16.40
2022-10-14T14:36:03.459Z,15.60
2022-10-14T14:39:32.956Z,15.40
2022-10-14T14:43:03.030Z,17.40
2022-10-14T14:46:33.509Z,17.40
2022-10-14T14:50:25.389Z,17.10
2022-10-14T14:53:54.540Z,18.20
2022-10-14T14:57:24.305Z,20.50
2022-10-14T15:00:55.308Z,18.00
2022-10-14T15:04:25.546Z,16.10
2022-10-14T15:07:52.958Z,15.60
2022-10-14T15:11:20.800Z,15.90
2022-10-14T15:14:50.150Z,17.20
2022-10-14T15:18:22.197Z,16.70
2022-10-14T15:22:09.208Z,16.20
2022-10-14T15:25:36.628Z,13.60
2022-10-14T15:29:17.113Z,15.60
2022-10-14T15:32:44.916Z,13.20
2022-10-14T15:36:15.183Z,12.70
2022-10-14T15:39:43.323Z,11.80
2022-10-14T15:43:18.158Z,11.70
2022-10-14T15:47:05.070Z,11.20
2022-10-14T15:50:32.298Z,11.30
2022-10-14T15:53:58.799Z,13.70
2022-10-14T15:57:26.233Z,11.10
2022-10-14T16:00:53.965Z,10.30
2022-10-14T16:04:24.996Z,11.10
2022-10-14T16:07:57.559Z,9.70
2022-10-14T16:11:30.120Z,11.00
2022-10-14T16:14:59.635Z,16.00
2022-10-14T16:18:29.625Z,17.50
2022-10-14T16:21:59.651Z,26.00
2022-10-14T16:25:34.546Z,30.30
2022-10-14T16:29:05.468Z,45.70
2022-10-14T16:32:36.259Z,48.80
2022-10-14T16:36:03.205Z,70.60
2022-10-14T16:39:30.725Z,73.90
2022-10-14T16:42:57.809Z,71.70
2022-10-14T16:46:45.408Z,37.90
2022-10-14T16:50:14.246Z,45.10
2022-10-14T16:53:45.716Z,43.70
2022-10-14T16:57:13.592Z,41.50
2022-10-14T17:00:42.888Z,32.50
2022-10-14T17:04:13.575Z,32.00
2022-10-14T17:07:40.987Z,24.60
2022-10-14T17:11:08.313Z,24.50
2022-10-14T17:14:37.928Z,24.00
2022-10-14T17:18:05.761Z,22.80
2022-10-14T17:21:32.854Z,20.60
2022-10-14T17:25:00.556Z,23.00
2022-10-14T17:28:27.347Z,23.40
2022-10-14T17:31:54.659Z,26.60
2022-10-14T17:35:21.303Z,50.80
2022-10-14T17:38:48.728Z,88.80
2022-10-14T17:42:15.724Z,94.20
2022-10-14T17:45:43.285Z,111.10
2022-10-14T17:49:15.313Z,100.60
2022-10-14T17:52:45.349Z,103.90
2022-10-14T17:56:15.270Z,182.50
2022-10-14T17:59:41.979Z,202.90
2022-10-14T18:03:13.025Z,192.30
2022-10-14T18:06:39.887Z,145.10
2022-10-14T18:10:08.430Z,134.60
2022-10-14T18:13:35.767Z,110.90
2022-10-14T18:17:03.276Z,86.20
2022-10-14T18:20:32.175Z,73.90
2022-10-14T18:23:59.589Z,56.40
2022-10-14T18:27:27.370Z,43.60
2022-10-14T18:30:53.904Z,47.60
2022-10-14T18:34:22.542Z,57.50
2022-10-14T18:37:52.833Z,52.50
2022-10-14T18:41:23.769Z,55.70
2022-10-14T18:44:51.942Z,42.80
2022-10-14T18:48:22.344Z,38.80
2022-10-14T18:51:49.495Z,37.50
2022-10-14T18:55:16.124Z,38.90
2022-10-14T18:58:43.012Z,33.10
2022-10-14T19:02:14.832Z,28.90
2022-10-14T19:05:42.404Z,32.20
2022-10-14T19:09:18.453Z,30.70
2022-10-14T19:12:45.259Z,33.20
2022-10-14T19:16:16.884Z,37.80
2022-10-14T19:19:44.954Z,37.00
2022-10-14T19:23:12.221Z,39.50
2022-10-14T19:26:43.180Z,39.50
2022-10-14T19:30:12.330Z,42.10
2022-10-14T19:33:40.970Z,42.20
2022-10-14T19:37:07.564Z,40.20
2022-10-14T19:40:34.076Z,40.30
2022-10-14T19:44:03.672Z,54.60
2022-10-14T19:47:31.008Z,95.80
2022-10-14T19:51:06.287Z,101.20
2022-10-14T19:54:34.280Z,131.60
2022-10-14T19:58:08.317Z,214.70
2022-10-14T20:01:35.699Z,179.80
2022-10-14T20:05:11.813Z,181.10
2022-10-14T20:08:41.397Z,138.20
2022-10-14T20:12:18.289Z,104.50
2022-10-14T20:15:56.398Z,88.90
2022-10-14T20:19:23.760Z,91.00
2022-10-14T20:22:50.757Z,85.80
2022-10-14T20:26:21.144Z,75.90
2022-10-14T20:29:54.201Z,86.50
2022-10-14T20:33:21.720Z,77.80
2022-10-14T20:36:49.570Z,78.10
2022-10-14T20:40:18.584Z,74.20
2022-10-14T20:43:48.327Z,66.30
2022-10-14T20:47:16.897Z,60.90
2022-10-14T20:50:47.264Z,60.60
2022-10-14T20:54:17.587Z,60.40
2022-10-14T20:57:44.920Z,62.50
2022-10-14T21:01:15.401Z,62.30
2022-10-14T21:04:43.989Z,56.60
2022-10-14T21:08:15.772Z,52.10
2022-10-14T21:11:43.839Z,48.10
2022-10-14T21:15:13.303Z,46.80
2022-10-14T21:18:40.142Z,49.20
2022-10-14T21:22:14.947Z,46.20
2022-10-14T21:25:42.590Z,45.20
2022-10-14T21:29:19.911Z,47.10
2022-10-14T21:33:00.625Z,48.80
2022-10-14T21:36:37.296Z,51.20
2022-10-14T21:40:19.079Z,50.40
2022-10-14T21:43:47.144Z,49.00
2022-10-14T21:47:20.510Z,50.30
2022-10-14T21:50:49.497Z,50.10
2022-10-14T21:54:28.318Z,49.60
2022-10-14T21:57:56.353Z,48.30
2022-10-14T22:01:26.377Z,46.40
2022-10-14T22:04:53.432Z,46.10
2022-10-14T22:08:24.226Z,42.40
2022-10-14T22:11:55.161Z,40.70
2022-10-14T22:15:22.109Z,41.60
2022-10-14T22:18:53.889Z,40.00
2022-10-14T22:22:21.138Z,41.60
2022-10-14T22:25:47.771Z,40.40
2022-10-14T22:29:16.570Z,46.80
2022-10-14T22:32:47.306Z,41.60
2022-10-14T22:36:21.058Z,43.50
2022-10-14T22:39:53.265Z,44.40
2022-10-14T22:43:20.448Z,46.60
2022-10-14T22:46:49.462Z,47.30
2022-10-14T22:50:19.151Z,47.70
2022-10-14T22:53:49.817Z,47.60
2022-10-14T22:57:17.277Z,47.00
2022-10-14T23:00:44.190Z,49.20
2022-10-14T23:04:12.412Z,48.40
2022-10-14T23:07:41.769Z,48.70
2022-10-14T23:11:10.341Z,47.10
2022-10-14T23:14:37.222Z,45.30
2022-10-14T23:18:05.363Z,46.00
2022-10-14T23:21:34.033Z,47.00
2022-10-14T23:25:01.171Z,43.30
2022-10-14T23:28:28.576Z,44.40
2022-10-14T23:31:58.443Z,42.10
2022-10-14T23:35:26.282Z,42.50
2022-10-14T23:38:56.311Z,43.50
2022-10-14T23:42:23.159Z,46.80
2022-10-14T23:49:28.207Z,58.20
2022-10-14T23:52:54.880Z,56.20
2022-10-14T23:56:21.687Z,55.80
2022-10-14T23:59:48.423Z,51.20
